createdAt,value
2018-03-22T00:00:03.808Z,6.95
2018-03-22T00:00:16.024Z,6.95
2018-03-22T00:00:28.211Z,6.95
2018-03-22T00:00:40.392Z,6.95
2018-03-22T00:00:52.564Z,6.95
2018-03-22T00:01:04.745Z,6.95
2018-03-22T00:01:16.938Z,6.95
2018-03-22T00:01:29.171Z,6.73
2018-03-22T00:01:41.368Z,6.73
2018-03-22T00:01:53.549Z,6.73
2018-03-22T00:02:05.722Z,6.73
2018-03-22T00:02:17.907Z,6.73
2018-03-22T00:02:30.089Z,6.73
2018-03-22T00:02:42.252Z,6.73
2018-03-22T00:02:54.459Z,6.73
2018-03-22T00:03:06.669Z,6.73
2018-03-22T00:03:18.894Z,6.73
2018-03-22T00:03:31.112Z,6.73
2018-03-22T00:03:43.287Z,6.73
2018-03-22T00:03:55.470Z,6.73
2018-03-22T00:04:07.666Z,6.73
2018-03-22T00:04:19.903Z,6.73
2018-03-22T00:04:32.074Z,7.03
2018-03-22T00:04:44.299Z,7.03
2018-03-22T00:04:56.478Z,7.03
2018-03-22T00:05:08.669Z,7.03
2018-03-22T00:05:20.859Z,7.03
2018-03-22T00:05:33.064Z,7.03
2018-03-22T00:05:45.239Z,7.03
2018-03-22T00:05:57.408Z,7.03
2018-03-22T00:06:09.624Z,7.03
2018-03-22T00:06:22.029Z,7.03
2018-03-22T00:06:34.238Z,7.03
2018-03-22T00:06:46.401Z,7.03
2018-03-22T00:06:58.587Z,7.03
2018-03-22T00:07:10.795Z,7.03
2018-03-22T00:07:23.108Z,7.03
2018-03-22T00:07:35.298Z,7.28
2018-03-22T00:07:47.529Z,7.28
2018-03-22T00:07:59.692Z,7.28
2018-03-22T00:08:11.886Z,7.28
2018-03-22T00:08:24.064Z,7.28
2018-03-22T00:08:36.305Z,7.28
2018-03-22T00:08:48.504Z,7.28
2018-03-22T00:09:00.678Z,7.28
2018-03-22T00:09:12.913Z,7.28
2018-03-22T00:09:25.103Z,7.28
2018-03-22T00:09:37.288Z,7.28
2018-03-22T00:09:49.460Z,7.28
2018-03-22T00:10:01.642Z,7.28
2018-03-22T00:10:13.811Z,7.28
2018-03-22T00:10:25.992Z,7.28
2018-03-22T00:10:38.177Z,7.53
2018-03-22T00:10:50.341Z,7.53
2018-03-22T00:11:02.523Z,7.53
2018-03-22T00:11:14.881Z,7.53
2018-03-22T00:11:27.073Z,7.53
2018-03-22T00:11:39.253Z,7.53
2018-03-22T00:11:51.551Z,7.53
2018-03-22T00:12:03.745Z,7.53
2018-03-22T00:12:15.933Z,7.53
2018-03-22T00:12:28.114Z,7.53
2018-03-22T00:12:40.342Z,7.53
2018-03-22T00:12:52.748Z,7.53
2018-03-22T00:13:04.920Z,7.53
2018-03-22T00:13:17.131Z,7.53
2018-03-22T00:13:29.301Z,7.87
2018-03-22T00:13:41.478Z,7.87
2018-03-22T00:13:53.647Z,7.87
2018-03-22T00:14:05.843Z,7.87
2018-03-22T00:14:18.004Z,7.87
2018-03-22T00:14:30.168Z,7.87
2018-03-22T00:14:42.337Z,7.87
2018-03-22T00:14:54.531Z,7.87
2018-03-22T00:15:06.699Z,7.87
2018-03-22T00:15:18.931Z,7.87
2018-03-22T00:15:31.112Z,7.87
2018-03-22T00:15:43.281Z,7.87
2018-03-22T00:15:55.471Z,7.87
2018-03-22T00:16:07.643Z,7.87
2018-03-22T00:16:19.876Z,7.87
2018-03-22T00:16:32.386Z,8.41
2018-03-22T00:16:44.735Z,8.41
2018-03-22T00:16:56.902Z,8.41
2018-03-22T00:17:09.086Z,8.41
2018-03-22T00:17:21.269Z,8.41
2018-03-22T00:17:33.520Z,8.41
2018-03-22T00:17:45.768Z,8.41
2018-03-22T00:17:57.928Z,8.41
2018-03-22T00:18:10.120Z,8.41
2018-03-22T00:18:22.315Z,8.41
2018-03-22T00:18:34.635Z,8.41
2018-03-22T00:18:46.825Z,8.41
2018-03-22T00:18:59.015Z,8.41
2018-03-22T00:19:11.223Z,8.41
2018-03-22T00:19:23.453Z,8.41
2018-03-22T00:19:35.634Z,8.48
2018-03-22T00:19:47.830Z,8.48
2018-03-22T00:20:00.010Z,8.48
2018-03-22T00:20:12.218Z,8.48
2018-03-22T00:20:24.424Z,8.48
2018-03-22T00:20:36.605Z,8.48
2018-03-22T00:20:48.782Z,8.48
2018-03-22T00:21:00.959Z,8.48
2018-03-22T00:21:13.191Z,8.48
2018-03-22T00:21:25.480Z,8.48
2018-03-22T00:21:37.669Z,8.48
2018-03-22T00:21:49.872Z,8.48
2018-03-22T00:22:02.055Z,8.48
2018-03-22T00:22:14.228Z,8.48
2018-03-22T00:22:26.400Z,8.48
2018-03-22T00:22:38.588Z,8.48
2018-03-22T00:22:50.848Z,8.29
2018-03-22T00:23:03.029Z,8.29
2018-03-22T00:23:15.208Z,8.29
2018-03-22T00:23:27.394Z,8.29
2018-03-22T00:23:39.586Z,8.29
2018-03-22T00:23:51.765Z,8.29
2018-03-22T00:24:03.965Z,8.29
2018-03-22T00:24:16.463Z,8.29
2018-03-22T00:24:28.641Z,8.29
2018-03-22T00:24:40.829Z,8.29
2018-03-22T00:24:52.993Z,8.29
2018-03-22T00:25:05.235Z,8.29
2018-03-22T00:25:17.407Z,8.29
2018-03-22T00:25:29.581Z,8.29
2018-03-22T00:25:41.766Z,8.29
2018-03-22T00:25:53.934Z,8.57
2018-03-22T00:26:06.098Z,8.57
2018-03-22T00:26:18.293Z,8.57
2018-03-22T00:26:30.476Z,8.57
2018-03-22T00:26:42.684Z,8.57
2018-03-22T00:26:55.375Z,8.57
2018-03-22T00:27:07.560Z,8.57
2018-03-22T00:27:19.742Z,8.57
2018-03-22T00:27:31.907Z,8.57
2018-03-22T00:27:44.085Z,8.57
2018-03-22T00:27:56.273Z,8.57
2018-03-22T00:28:08.436Z,8.57
2018-03-22T00:28:20.628Z,8.57
2018-03-22T00:28:32.808Z,8.57
2018-03-22T00:28:44.989Z,8.19
2018-03-22T00:28:57.157Z,8.19
2018-03-22T00:29:09.333Z,8.19
2018-03-22T00:29:21.527Z,8.19
2018-03-22T00:29:33.701Z,8.19
2018-03-22T00:29:45.912Z,8.19
2018-03-22T00:29:58.285Z,8.19
2018-03-22T00:30:10.472Z,8.19
2018-03-22T00:30:22.693Z,8.19
2018-03-22T00:30:34.885Z,8.19
2018-03-22T00:30:47.058Z,8.19
2018-03-22T00:30:59.229Z,8.19
2018-03-22T00:31:11.421Z,8.19
2018-03-22T00:31:23.610Z,8.19
2018-03-22T00:31:35.784Z,8.19
2018-03-22T00:31:47.974Z,7.87
2018-03-22T00:32:00.143Z,7.87
2018-03-22T00:32:12.356Z,7.87
2018-03-22T00:32:24.676Z,7.87
2018-03-22T00:32:36.876Z,7.87
2018-03-22T00:32:49.126Z,7.87
2018-03-22T00:33:01.358Z,7.87
2018-03-22T00:33:13.569Z,7.87
2018-03-22T00:33:25.799Z,7.87
2018-03-22T00:33:38.000Z,7.87
2018-03-22T00:33:50.184Z,7.87
2018-03-22T00:34:02.403Z,7.87
2018-03-22T00:34:14.600Z,7.87
2018-03-22T00:34:26.774Z,7.87
2018-03-22T00:34:39.039Z,7.87
2018-03-22T00:34:51.278Z,8.41
2018-03-22T00:35:03.426Z,8.41
2018-03-22T00:35:15.573Z,8.41
2018-03-22T00:35:27.720Z,8.41
2018-03-22T00:35:39.864Z,8.41
2018-03-22T00:35:52.011Z,8.41
2018-03-22T00:36:04.150Z,8.41
2018-03-22T00:36:16.283Z,8.41
2018-03-22T00:36:28.439Z,8.41
2018-03-22T00:36:40.617Z,8.41
2018-03-22T00:36:52.748Z,8.41
2018-03-22T00:37:04.905Z,8.41
2018-03-22T00:37:17.113Z,8.41
2018-03-22T00:37:29.412Z,8.41
2018-03-22T00:37:41.571Z,8.41
2018-03-22T00:37:53.750Z,9.16
2018-03-22T00:38:05.885Z,9.16
2018-03-22T00:38:18.017Z,9.16
2018-03-22T00:38:30.160Z,9.16
2018-03-22T00:38:42.293Z,9.16
2018-03-22T00:38:54.434Z,9.16
2018-03-22T00:39:06.552Z,9.16
2018-03-22T00:39:18.958Z,9.16
2018-03-22T00:39:31.145Z,9.16
2018-03-22T00:39:43.405Z,9.16
2018-03-22T00:39:55.537Z,9.16
2018-03-22T00:40:07.697Z,9.16
2018-03-22T00:40:19.819Z,9.16
2018-03-22T00:40:31.962Z,9.16
2018-03-22T00:40:44.178Z,9.16
2018-03-22T00:40:56.325Z,9.48
2018-03-22T00:41:08.530Z,9.48
2018-03-22T00:41:20.657Z,9.48
2018-03-22T00:41:32.800Z,9.48
2018-03-22T00:41:44.926Z,9.48
2018-03-22T00:41:57.048Z,9.48
2018-03-22T00:42:09.194Z,9.48
2018-03-22T00:42:21.374Z,9.48
2018-03-22T00:42:33.499Z,9.48
2018-03-22T00:42:45.642Z,9.48
2018-03-22T00:42:57.799Z,9.48
2018-03-22T00:43:09.954Z,9.48
2018-03-22T00:43:22.103Z,9.48
2018-03-22T00:43:34.227Z,9.48
2018-03-22T00:43:46.365Z,9.48
2018-03-22T00:43:58.546Z,9.53
2018-03-22T00:44:10.687Z,9.53
2018-03-22T00:44:22.822Z,9.53
2018-03-22T00:44:35.000Z,9.53
2018-03-22T00:44:47.163Z,9.53
2018-03-22T00:44:59.291Z,9.53
2018-03-22T00:45:11.419Z,9.53
2018-03-22T00:45:23.555Z,9.53
2018-03-22T00:45:35.718Z,9.53
2018-03-22T00:45:47.864Z,9.53
2018-03-22T00:45:59.998Z,9.53
2018-03-22T00:46:12.147Z,9.53
2018-03-22T00:46:24.274Z,9.53
2018-03-22T00:46:36.404Z,9.53
2018-03-22T00:46:48.557Z,9.57
2018-03-22T00:47:00.683Z,9.57
2018-03-22T00:47:12.824Z,9.57
2018-03-22T00:47:25.011Z,9.57
2018-03-22T00:47:37.258Z,9.57
2018-03-22T00:47:49.382Z,9.57
2018-03-22T00:48:01.647Z,9.57
2018-03-22T00:48:13.781Z,9.57
2018-03-22T00:48:25.930Z,9.57
2018-03-22T00:48:38.057Z,9.57
2018-03-22T00:48:50.176Z,9.57
2018-03-22T00:49:02.309Z,9.57
2018-03-22T00:49:14.451Z,9.57
2018-03-22T00:49:26.598Z,9.57
2018-03-22T00:49:38.754Z,9.57
2018-03-22T00:49:50.921Z,9.5
2018-03-22T00:50:03.061Z,9.5
2018-03-22T00:50:15.195Z,9.5
2018-03-22T00:50:27.346Z,9.5
2018-03-22T00:50:39.513Z,9.5
2018-03-22T00:50:51.657Z,9.5
2018-03-22T00:51:03.788Z,9.5
2018-03-22T00:51:15.945Z,9.5
2018-03-22T00:51:28.096Z,9.5
2018-03-22T00:51:40.239Z,9.5
2018-03-22T00:51:52.388Z,9.5
2018-03-22T00:52:04.518Z,9.5
2018-03-22T00:52:16.652Z,9.5
2018-03-22T00:52:28.797Z,9.5
2018-03-22T00:52:40.971Z,9.5
2018-03-22T00:52:53.098Z,9.71
2018-03-22T00:53:05.241Z,9.71
2018-03-22T00:53:17.410Z,9.71
2018-03-22T00:53:29.581Z,9.71
2018-03-22T00:53:41.724Z,9.71
2018-03-22T00:53:53.841Z,9.71
2018-03-22T00:54:05.986Z,9.71
2018-03-22T00:54:18.122Z,9.71
2018-03-22T00:54:30.266Z,9.71
2018-03-22T00:54:42.539Z,9.71
2018-03-22T00:54:54.666Z,9.71
2018-03-22T00:55:06.819Z,9.71
2018-03-22T00:55:19.098Z,9.71
2018-03-22T00:55:31.236Z,9.71
2018-03-22T00:55:43.369Z,9.71
2018-03-22T00:55:55.497Z,9.77
2018-03-22T00:56:07.680Z,9.77
2018-03-22T00:56:19.861Z,9.77
2018-03-22T00:56:32.015Z,9.77
2018-03-22T00:56:44.159Z,9.77
2018-03-22T00:56:56.318Z,9.77
2018-03-22T00:57:08.451Z,9.77
2018-03-22T00:57:20.584Z,9.77
2018-03-22T00:57:32.736Z,9.77
2018-03-22T00:57:44.889Z,9.77
2018-03-22T00:57:57.016Z,9.77
2018-03-22T00:58:09.134Z,9.77
2018-03-22T00:58:21.267Z,9.77
2018-03-22T00:58:33.395Z,9.77
2018-03-22T00:58:45.532Z,9.77
2018-03-22T00:58:57.730Z,9.52
2018-03-22T00:59:09.869Z,9.52
2018-03-22T00:59:22.048Z,9.52
2018-03-22T00:59:34.264Z,9.52
2018-03-22T00:59:46.564Z,9.52
2018-03-22T00:59:58.714Z,9.52
2018-03-22T01:00:10.917Z,9.52
2018-03-22T01:00:23.085Z,9.52
2018-03-22T01:00:35.228Z,9.52
2018-03-22T01:00:47.352Z,9.52
2018-03-22T01:00:59.480Z,9.52
2018-03-22T01:01:11.621Z,9.52
2018-03-22T01:01:23.779Z,9.52
2018-03-22T01:01:35.910Z,9.52
2018-03-22T01:01:48.104Z,9.52
2018-03-22T01:02:00.236Z,9.8
2018-03-22T01:02:12.381Z,9.8
2018-03-22T01:02:24.526Z,9.8
2018-03-22T01:02:36.742Z,9.8
2018-03-22T01:02:48.901Z,9.8
2018-03-22T01:03:01.028Z,9.8
2018-03-22T01:03:13.172Z,9.8
2018-03-22T01:03:25.302Z,9.8
2018-03-22T01:03:37.438Z,9.8
2018-03-22T01:03:49.571Z,9.8
2018-03-22T01:04:01.727Z,9.8
2018-03-22T01:04:13.891Z,9.8
2018-03-22T01:04:26.071Z,9.8
2018-03-22T01:04:38.207Z,9.8
2018-03-22T01:04:50.362Z,9.6
2018-03-22T01:05:02.570Z,9.6
2018-03-22T01:05:14.696Z,9.6
2018-03-22T01:05:26.835Z,9.6
2018-03-22T01:05:38.971Z,9.6
2018-03-22T01:05:51.179Z,9.6
2018-03-22T01:06:03.318Z,9.6
2018-03-22T01:06:15.480Z,9.6
2018-03-22T01:06:27.614Z,9.6
2018-03-22T01:06:39.746Z,9.6
2018-03-22T01:06:51.888Z,9.6
2018-03-22T01:07:04.023Z,9.6
2018-03-22T01:07:16.311Z,9.6
2018-03-22T01:07:28.439Z,9.6
2018-03-22T01:07:40.596Z,9.6
2018-03-22T01:07:52.743Z,9.57
2018-03-22T01:08:04.883Z,9.57
2018-03-22T01:08:17.007Z,9.57
2018-03-22T01:08:29.145Z,9.57
2018-03-22T01:08:41.266Z,9.57
2018-03-22T01:08:53.437Z,9.57
2018-03-22T01:09:05.565Z,9.57
2018-03-22T01:09:17.707Z,9.57
2018-03-22T01:09:29.861Z,9.57
2018-03-22T01:09:41.975Z,9.57
2018-03-22T01:09:54.110Z,9.57
2018-03-22T01:10:06.232Z,9.57
2018-03-22T01:10:18.365Z,9.57
2018-03-22T01:10:30.658Z,9.57
2018-03-22T01:10:43.020Z,9.57
2018-03-22T01:10:55.342Z,10.18
2018-03-22T01:11:07.477Z,10.18
2018-03-22T01:11:19.783Z,10.18
2018-03-22T01:11:31.926Z,10.18
2018-03-22T01:11:44.050Z,10.18
2018-03-22T01:11:56.254Z,10.18
2018-03-22T01:12:08.399Z,10.18
2018-03-22T01:12:20.565Z,10.18
2018-03-22T01:12:32.699Z,10.18
2018-03-22T01:12:45.112Z,10.18
2018-03-22T01:12:57.254Z,10.18
2018-03-22T01:13:09.393Z,10.18
2018-03-22T01:13:21.539Z,10.18
2018-03-22T01:13:33.675Z,10.18
2018-03-22T01:13:45.802Z,10.18
2018-03-22T01:13:57.977Z,10.16
2018-03-22T01:14:10.105Z,10.16
2018-03-22T01:14:22.258Z,10.16
2018-03-22T01:14:34.420Z,10.16
2018-03-22T01:14:46.606Z,10.16
2018-03-22T01:14:58.741Z,10.16
2018-03-22T01:15:10.880Z,10.16
2018-03-22T01:15:23.004Z,10.16
2018-03-22T01:15:35.148Z,10.16
2018-03-22T01:15:47.312Z,10.16
2018-03-22T01:15:59.452Z,10.16
2018-03-22T01:16:11.612Z,10.16
2018-03-22T01:16:23.734Z,10.16
2018-03-22T01:16:36.001Z,10.16
2018-03-22T01:16:48.185Z,10.16
2018-03-22T01:17:00.338Z,9.95
2018-03-22T01:17:12.483Z,9.95
2018-03-22T01:17:24.607Z,9.95
2018-03-22T01:17:36.744Z,9.95
2018-03-22T01:17:48.874Z,9.95
2018-03-22T01:18:01.018Z,9.95
2018-03-22T01:18:13.332Z,9.95
2018-03-22T01:18:25.456Z,9.95
2018-03-22T01:18:37.870Z,9.95
2018-03-22T01:18:50.023Z,9.95
2018-03-22T01:19:02.219Z,9.95
2018-03-22T01:19:14.348Z,9.95
2018-03-22T01:19:26.543Z,9.95
2018-03-22T01:19:38.677Z,9.95
2018-03-22T01:19:50.809Z,9.95
2018-03-22T01:20:02.971Z,9.62
2018-03-22T01:20:15.159Z,9.62
2018-03-22T01:20:27.309Z,9.62
2018-03-22T01:20:39.432Z,9.62
2018-03-22T01:20:51.572Z,9.62
2018-03-22T01:21:03.695Z,9.62
2018-03-22T01:21:15.898Z,9.62
2018-03-22T01:21:28.039Z,9.62
2018-03-22T01:21:40.236Z,9.62
2018-03-22T01:21:52.394Z,9.62
2018-03-22T01:22:04.675Z,9.62
2018-03-22T01:22:16.826Z,9.62
2018-03-22T01:22:28.968Z,9.62
2018-03-22T01:22:41.119Z,9.62
2018-03-22T01:22:53.265Z,10.09
2018-03-22T01:23:05.405Z,10.09
2018-03-22T01:23:17.543Z,10.09
2018-03-22T01:23:29.685Z,10.09
2018-03-22T01:23:41.842Z,10.09
2018-03-22T01:23:53.973Z,10.09
2018-03-22T01:24:06.123Z,10.09
2018-03-22T01:24:18.249Z,10.09
2018-03-22T01:24:30.393Z,10.09
2018-03-22T01:24:42.647Z,10.09
2018-03-22T01:24:54.774Z,10.09
2018-03-22T01:25:07.046Z,10.09
2018-03-22T01:25:19.249Z,10.09
2018-03-22T01:25:31.383Z,10.09
2018-03-22T01:25:43.522Z,10.09
2018-03-22T01:25:55.684Z,10.21
2018-03-22T01:26:07.832Z,10.21
2018-03-22T01:26:19.965Z,10.21
2018-03-22T01:26:32.081Z,10.21
2018-03-22T01:26:44.216Z,10.21
2018-03-22T01:26:56.497Z,10.21
2018-03-22T01:27:08.637Z,10.21
2018-03-22T01:27:20.771Z,10.21
2018-03-22T01:27:32.925Z,10.21
2018-03-22T01:27:45.059Z,10.21
2018-03-22T01:27:57.203Z,10.21
2018-03-22T01:28:09.321Z,10.21
2018-03-22T01:28:21.457Z,10.21
2018-03-22T01:28:33.599Z,10.21
2018-03-22T01:28:45.749Z,10.21
2018-03-22T01:28:57.896Z,9.57
2018-03-22T01:29:10.063Z,9.57
2018-03-22T01:29:22.226Z,9.57
2018-03-22T01:29:34.398Z,9.57
2018-03-22T01:29:46.527Z,9.57
2018-03-22T01:29:58.656Z,9.57
2018-03-22T01:30:10.800Z,9.57
2018-03-22T01:30:22.952Z,9.57
2018-03-22T01:30:35.092Z,9.57
2018-03-22T01:30:47.272Z,9.57
2018-03-22T01:30:59.426Z,9.57
2018-03-22T01:31:11.654Z,9.57
2018-03-22T01:31:23.816Z,9.57
2018-03-22T01:31:35.965Z,9.57
2018-03-22T01:31:48.121Z,9.57
2018-03-22T01:32:00.247Z,9.77
2018-03-22T01:32:12.404Z,9.77
2018-03-22T01:32:24.715Z,9.77
2018-03-22T01:32:36.856Z,9.77
2018-03-22T01:32:48.991Z,9.77
2018-03-22T01:33:01.157Z,9.77
2018-03-22T01:33:13.318Z,9.77
2018-03-22T01:33:25.463Z,9.77
2018-03-22T01:33:37.602Z,9.77
2018-03-22T01:33:49.734Z,9.77
2018-03-22T01:34:01.890Z,9.77
2018-03-22T01:34:14.023Z,9.77
2018-03-22T01:34:26.159Z,9.77
2018-03-22T01:34:38.301Z,9.77
2018-03-22T01:34:50.439Z,9.77
2018-03-22T01:35:02.592Z,9.75
2018-03-22T01:35:14.758Z,9.75
2018-03-22T01:35:26.902Z,9.75
2018-03-22T01:35:39.046Z,9.75
2018-03-22T01:35:51.247Z,9.75
2018-03-22T01:36:03.389Z,9.75
2018-03-22T01:36:15.525Z,9.75
2018-03-22T01:36:27.655Z,9.75
2018-03-22T01:36:39.805Z,9.75
2018-03-22T01:36:51.955Z,9.75
2018-03-22T01:37:04.100Z,9.75
2018-03-22T01:37:16.379Z,9.75
2018-03-22T01:37:28.644Z,9.75
2018-03-22T01:37:40.780Z,9.75
2018-03-22T01:37:52.922Z,9.75
2018-03-22T01:38:05.045Z,9.96
2018-03-22T01:38:17.198Z,9.96
2018-03-22T01:38:29.352Z,9.96
2018-03-22T01:38:41.500Z,9.96
2018-03-22T01:38:53.650Z,9.96
2018-03-22T01:39:05.822Z,9.96
2018-03-22T01:39:17.963Z,9.96
2018-03-22T01:39:30.112Z,9.96
2018-03-22T01:39:42.278Z,9.96
2018-03-22T01:39:54.466Z,9.96
2018-03-22T01:40:06.664Z,9.96
2018-03-22T01:40:18.796Z,9.96
2018-03-22T01:40:30.936Z,9.96
2018-03-22T01:40:43.078Z,9.96
2018-03-22T01:40:55.220Z,10.05
2018-03-22T01:41:07.371Z,10.05
2018-03-22T01:41:19.534Z,10.05
2018-03-22T01:41:31.659Z,10.05
2018-03-22T01:41:43.805Z,10.05
2018-03-22T01:41:55.966Z,10.05
2018-03-22T01:42:08.090Z,10.05
2018-03-22T01:42:20.240Z,10.05
2018-03-22T01:42:32.391Z,10.05
2018-03-22T01:42:44.527Z,10.05
2018-03-22T01:42:56.658Z,10.05
2018-03-22T01:43:08.802Z,10.05
2018-03-22T01:43:20.954Z,10.05
2018-03-22T01:43:33.132Z,10.05
2018-03-22T01:43:45.275Z,10.05
2018-03-22T01:43:57.456Z,9.59
2018-03-22T01:44:09.635Z,9.59
2018-03-22T01:44:21.789Z,9.59
2018-03-22T01:44:33.908Z,9.59
2018-03-22T01:44:46.089Z,9.59
2018-03-22T01:44:58.256Z,9.59
2018-03-22T01:45:10.400Z,9.59
2018-03-22T01:45:22.524Z,9.59
2018-03-22T01:45:34.680Z,9.59
2018-03-22T01:45:46.829Z,9.59
2018-03-22T01:45:58.974Z,9.59
2018-03-22T01:46:11.175Z,9.59
2018-03-22T01:46:23.294Z,9.59
2018-03-22T01:46:35.428Z,9.59
2018-03-22T01:46:47.543Z,9.59
2018-03-22T01:46:59.698Z,9.62
2018-03-22T01:47:11.847Z,9.62
2018-03-22T01:47:23.989Z,9.62
2018-03-22T01:47:36.185Z,9.62
2018-03-22T01:47:48.399Z,9.62
2018-03-22T01:48:00.693Z,9.62
2018-03-22T01:48:12.830Z,9.62
2018-03-22T01:48:24.967Z,9.62
2018-03-22T01:48:37.100Z,9.62
2018-03-22T01:48:49.243Z,9.62
2018-03-22T01:49:01.399Z,9.62
2018-03-22T01:49:13.532Z,9.62
2018-03-22T01:49:25.670Z,9.62
2018-03-22T01:49:37.786Z,9.62
2018-03-22T01:49:49.922Z,9.62
2018-03-22T01:50:02.064Z,9.83
2018-03-22T01:50:14.224Z,9.83
2018-03-22T01:50:26.393Z,9.83
2018-03-22T01:50:38.545Z,9.83
2018-03-22T01:50:50.665Z,9.83
2018-03-22T01:51:02.813Z,9.83
2018-03-22T01:51:14.951Z,9.83
2018-03-22T01:51:27.116Z,9.83
2018-03-22T01:51:39.278Z,9.83
2018-03-22T01:51:51.415Z,9.83
2018-03-22T01:52:03.554Z,9.83
2018-03-22T01:52:15.692Z,9.83
2018-03-22T01:52:27.829Z,9.83
2018-03-22T01:52:39.966Z,9.83
2018-03-22T01:52:52.246Z,9.83
2018-03-22T01:53:04.363Z,9.83
2018-03-22T01:53:16.527Z,9.83
2018-03-22T01:53:28.661Z,9.91
2018-03-22T01:53:40.794Z,9.91
2018-03-22T01:53:52.915Z,9.91
2018-03-22T01:54:05.056Z,9.91
2018-03-22T01:54:17.175Z,9.91
2018-03-22T01:54:29.302Z,9.91
2018-03-22T01:54:41.833Z,9.91
2018-03-22T01:54:53.948Z,9.91
2018-03-22T01:55:06.073Z,9.91
2018-03-22T01:55:18.260Z,9.91
2018-03-22T01:55:30.506Z,9.91
2018-03-22T01:55:42.640Z,9.91
2018-03-22T01:55:54.791Z,9.91
2018-03-22T01:56:06.934Z,9.91
2018-03-22T01:56:19.062Z,9.91
2018-03-22T01:56:31.209Z,10.09
2018-03-22T01:56:43.350Z,10.09
2018-03-22T01:56:55.533Z,10.09
2018-03-22T01:57:07.665Z,10.09
2018-03-22T01:57:19.852Z,10.09
2018-03-22T01:57:31.985Z,10.09
2018-03-22T01:57:44.119Z,10.09
2018-03-22T01:57:56.297Z,10.09
2018-03-22T01:58:08.433Z,10.09
2018-03-22T01:58:20.584Z,10.09
2018-03-22T01:58:32.731Z,10.09
2018-03-22T01:58:44.855Z,10.09
2018-03-22T01:58:57.040Z,10.09
2018-03-22T01:59:09.176Z,10.09
2018-03-22T01:59:21.327Z,10.09
2018-03-22T01:59:33.455Z,10.02
2018-03-22T01:59:45.685Z,10.02
2018-03-22T01:59:57.817Z,10.02
2018-03-22T02:00:09.975Z,10.02
2018-03-22T02:00:22.152Z,10.02
2018-03-22T02:00:34.321Z,10.02
2018-03-22T02:00:46.460Z,10.02
2018-03-22T02:00:58.585Z,10.02
2018-03-22T02:01:10.735Z,10.02
2018-03-22T02:01:22.900Z,10.02
2018-03-22T02:01:35.051Z,10.02
2018-03-22T02:01:47.222Z,10.02
2018-03-22T02:01:59.524Z,10.02
2018-03-22T02:02:11.654Z,10.02
2018-03-22T02:02:23.852Z,10.02
2018-03-22T02:02:36.016Z,9.93
2018-03-22T02:02:48.166Z,9.93
2018-03-22T02:03:00.316Z,9.93
2018-03-22T02:03:12.446Z,9.93
2018-03-22T02:03:24.590Z,9.93
2018-03-22T02:03:36.734Z,9.93
2018-03-22T02:03:48.862Z,9.93
2018-03-22T02:04:00.988Z,9.93
2018-03-22T02:04:13.142Z,9.93
2018-03-22T02:04:25.262Z,9.93
2018-03-22T02:04:37.389Z,9.93
2018-03-22T02:04:49.559Z,9.93
2018-03-22T02:05:01.697Z,9.93
2018-03-22T02:05:13.836Z,9.93
2018-03-22T02:05:25.976Z,9.93
2018-03-22T02:05:38.114Z,10.12
2018-03-22T02:05:50.284Z,10.12
2018-03-22T02:06:02.443Z,10.12
2018-03-22T02:06:14.583Z,10.12
2018-03-22T02:06:26.779Z,10.12
2018-03-22T02:06:38.977Z,10.12
2018-03-22T02:06:51.135Z,10.12
2018-03-22T02:07:03.290Z,10.12
2018-03-22T02:07:15.580Z,10.12
2018-03-22T02:07:27.721Z,10.12
2018-03-22T02:07:39.835Z,10.12
2018-03-22T02:07:51.997Z,10.12
2018-03-22T02:08:04.138Z,10.12
2018-03-22T02:08:16.279Z,10.12
2018-03-22T02:08:28.410Z,10.12
2018-03-22T02:08:40.557Z,10
2018-03-22T02:08:52.672Z,10
2018-03-22T02:09:04.808Z,10
2018-03-22T02:09:16.924Z,10
2018-03-22T02:09:29.062Z,10
2018-03-22T02:09:41.190Z,10
2018-03-22T02:09:53.337Z,10
2018-03-22T02:10:05.674Z,10
2018-03-22T02:10:18.125Z,10
2018-03-22T02:10:30.330Z,10
2018-03-22T02:10:42.477Z,10
2018-03-22T02:10:54.624Z,10
2018-03-22T02:11:06.759Z,10
2018-03-22T02:11:19.083Z,10
2018-03-22T02:11:31.215Z,9.57
2018-03-22T02:11:43.408Z,9.57
2018-03-22T02:11:55.580Z,9.57
2018-03-22T02:12:07.738Z,9.57
2018-03-22T02:12:19.884Z,9.57
2018-03-22T02:12:32.029Z,9.57
2018-03-22T02:12:44.332Z,9.57
2018-03-22T02:12:56.463Z,9.57
2018-03-22T02:13:08.601Z,9.57
2018-03-22T02:13:20.739Z,9.57
2018-03-22T02:13:32.876Z,9.57
2018-03-22T02:13:45.092Z,9.57
2018-03-22T02:13:57.271Z,9.57
2018-03-22T02:14:09.590Z,9.57
2018-03-22T02:14:21.724Z,9.57
2018-03-22T02:14:33.855Z,9.5
2018-03-22T02:14:45.997Z,9.5
2018-03-22T02:14:58.132Z,9.5
2018-03-22T02:15:10.284Z,9.5
2018-03-22T02:15:22.438Z,9.5
2018-03-22T02:15:34.580Z,9.5
2018-03-22T02:15:46.721Z,9.5
2018-03-22T02:15:58.853Z,9.5
2018-03-22T02:16:10.990Z,9.5
2018-03-22T02:16:23.161Z,9.5
2018-03-22T02:16:35.416Z,9.5
2018-03-22T02:16:47.537Z,9.5
2018-03-22T02:16:59.659Z,9.5
2018-03-22T02:17:11.805Z,9.5
2018-03-22T02:17:23.948Z,9.5
2018-03-22T02:17:36.114Z,9.4
2018-03-22T02:17:48.249Z,9.4
2018-03-22T02:18:00.364Z,9.4
2018-03-22T02:18:12.507Z,9.4
2018-03-22T02:18:24.646Z,9.4
2018-03-22T02:18:36.917Z,9.4
2018-03-22T02:18:49.078Z,9.4
2018-03-22T02:19:01.206Z,9.4
2018-03-22T02:19:13.352Z,9.4
2018-03-22T02:19:25.481Z,9.4
2018-03-22T02:19:37.622Z,9.4
2018-03-22T02:19:49.821Z,9.4
2018-03-22T02:20:01.970Z,9.4
2018-03-22T02:20:14.096Z,9.4
2018-03-22T02:20:26.266Z,9.4
2018-03-22T02:20:38.461Z,9.1
2018-03-22T02:20:50.626Z,9.1
2018-03-22T02:21:02.763Z,9.1
2018-03-22T02:21:14.896Z,9.1
2018-03-22T02:21:27.044Z,9.1
2018-03-22T02:21:39.191Z,9.1
2018-03-22T02:21:51.325Z,9.1
2018-03-22T02:22:03.462Z,9.1
2018-03-22T02:22:15.631Z,9.1
2018-03-22T02:22:27.832Z,9.1
2018-03-22T02:22:39.966Z,9.1
2018-03-22T02:22:52.124Z,9.1
2018-03-22T02:23:04.291Z,9.1
2018-03-22T02:23:16.444Z,9.1
2018-03-22T02:23:28.588Z,9.1
2018-03-22T02:23:40.718Z,9.41
2018-03-22T02:23:52.848Z,9.41
2018-03-22T02:24:04.993Z,9.41
2018-03-22T02:24:17.140Z,9.41
2018-03-22T02:24:29.285Z,9.41
2018-03-22T02:24:41.427Z,9.41
2018-03-22T02:24:53.577Z,9.41
2018-03-22T02:25:05.720Z,9.41
2018-03-22T02:25:17.865Z,9.41
2018-03-22T02:25:30.032Z,9.41
2018-03-22T02:25:42.193Z,9.41
2018-03-22T02:25:54.335Z,9.41
2018-03-22T02:26:06.607Z,9.41
2018-03-22T02:26:18.736Z,9.41
2018-03-22T02:26:30.943Z,9.41
2018-03-22T02:26:43.072Z,9.69
2018-03-22T02:26:55.549Z,9.69
2018-03-22T02:27:07.720Z,9.69
2018-03-22T02:27:19.911Z,9.69
2018-03-22T02:27:32.072Z,9.69
2018-03-22T02:27:44.261Z,9.69
2018-03-22T02:27:56.424Z,9.69
2018-03-22T02:28:08.561Z,9.69
2018-03-22T02:28:20.716Z,9.69
2018-03-22T02:28:32.845Z,9.69
2018-03-22T02:28:44.984Z,9.69
2018-03-22T02:28:57.124Z,9.69
2018-03-22T02:29:09.254Z,9.69
2018-03-22T02:29:21.400Z,9.69
2018-03-22T02:29:33.552Z,9.69
2018-03-22T02:29:45.719Z,9.64
2018-03-22T02:29:57.866Z,9.64
2018-03-22T02:30:10.042Z,9.64
2018-03-22T02:30:22.225Z,9.64
2018-03-22T02:30:34.615Z,9.64
2018-03-22T02:30:46.828Z,9.64
2018-03-22T02:30:58.995Z,9.64
2018-03-22T02:31:11.226Z,9.64
2018-03-22T02:31:23.399Z,9.64
2018-03-22T02:31:35.581Z,9.64
2018-03-22T02:31:47.747Z,9.64
2018-03-22T02:31:59.948Z,9.64
2018-03-22T02:32:12.107Z,9.64
2018-03-22T02:32:24.435Z,9.64
2018-03-22T02:32:36.587Z,9.05
2018-03-22T02:32:48.729Z,9.05
2018-03-22T02:33:00.883Z,9.05
2018-03-22T02:33:13.063Z,9.05
2018-03-22T02:33:25.241Z,9.05
2018-03-22T02:33:37.445Z,9.05
2018-03-22T02:33:49.626Z,9.05
2018-03-22T02:34:01.888Z,9.05
2018-03-22T02:34:14.062Z,9.05
2018-03-22T02:34:26.269Z,9.05
2018-03-22T02:34:38.444Z,9.05
2018-03-22T02:34:50.681Z,9.05
2018-03-22T02:35:02.855Z,9.05
2018-03-22T02:35:15.030Z,9.05
2018-03-22T02:35:27.254Z,9.05
2018-03-22T02:35:39.499Z,9.05
2018-03-22T02:35:51.676Z,9.05
2018-03-22T02:36:03.838Z,9.05
2018-03-22T02:36:16.073Z,9.05
2018-03-22T02:36:28.293Z,9.05
2018-03-22T02:36:40.442Z,9.05
2018-03-22T02:36:52.641Z,9.05
2018-03-22T02:37:04.876Z,9.05
2018-03-22T02:37:17.047Z,9.05
2018-03-22T02:37:29.433Z,9.05
2018-03-22T02:37:41.605Z,9.05
2018-03-22T02:37:53.771Z,9.05
2018-03-22T02:38:05.964Z,9.05
2018-03-22T02:38:18.164Z,9.05
2018-03-22T02:38:30.366Z,9.05
2018-03-22T02:38:42.609Z,9.43
2018-03-22T02:38:54.787Z,9.43
2018-03-22T02:39:06.977Z,9.43
2018-03-22T02:39:19.159Z,9.43
2018-03-22T02:39:31.309Z,9.43
2018-03-22T02:39:43.478Z,9.43
2018-03-22T02:39:55.899Z,9.43
2018-03-22T02:40:08.114Z,9.43
2018-03-22T02:40:20.308Z,9.43
2018-03-22T02:40:32.500Z,9.43
2018-03-22T02:40:44.676Z,9.43
2018-03-22T02:40:56.816Z,9.43
2018-03-22T02:41:09.035Z,9.43
2018-03-22T02:41:21.216Z,9.43
2018-03-22T02:41:33.353Z,9.43
2018-03-22T02:41:45.528Z,8.95
2018-03-22T02:41:57.690Z,8.95